createdAt,value
2018-09-23T00:00:18.231Z,101264.13
2018-09-23T00:02:53.464Z,101266.47
2018-09-23T00:05:32.691Z,101265.50
2018-09-23T00:08:05.681Z,101255.88
2018-09-23T00:10:35.084Z,101245.00
2018-09-23T00:13:06.095Z,101219.35
2018-09-23T00:15:38.894Z,101215.21
2018-09-23T00:18:09.889Z,101225.73
2018-09-23T00:20:59.106Z,101216.58
2018-09-23T00:23:36.385Z,101205.76
2018-09-23T00:26:10.100Z,101198.18
2018-09-23T00:28:44.995Z,101193.82
2018-09-23T00:31:14.344Z,101194.65
2018-09-23T00:33:56.344Z,101182.74
2018-09-23T00:36:25.680Z,101192.03
2018-09-23T00:38:58.289Z,101184.44
2018-09-23T00:41:32.557Z,101189.32
2018-09-23T00:44:01.441Z,101170.21
2018-09-23T00:46:30.337Z,101168.25
2018-09-23T00:49:00.327Z,101160.01
2018-09-23T00:51:29.206Z,101159.27
2018-09-23T00:53:58.152Z,101168.38
2018-09-23T00:56:27.038Z,101166.14
2018-09-23T00:58:55.984Z,101155.50
2018-09-23T01:01:24.973Z,101158.44
2018-09-23T01:07:00.692Z,101161.41
2018-09-23T01:09:30.606Z,101161.04
2018-09-23T01:12:03.218Z,101151.80
2018-09-23T01:14:32.281Z,101155.84
2018-09-23T01:17:01.150Z,101151.26
2018-09-23T01:19:30.065Z,101150.95
2018-09-23T01:22:02.837Z,101148.86
2018-09-23T01:24:31.729Z,101144.06
2018-09-23T01:27:00.655Z,101147.20
2018-09-23T01:29:29.581Z,101136.87
2018-09-23T01:31:58.494Z,101134.54
2018-09-23T01:34:38.327Z,101133.25
2018-09-23T01:37:11.708Z,101131.36
2018-09-23T01:39:40.581Z,101127.85
2018-09-23T01:42:09.493Z,101111.78
2018-09-23T01:44:38.403Z,101113.06
2018-09-23T01:47:09.660Z,101105.36
2018-09-23T01:49:38.603Z,101090.81
2018-09-23T01:52:07.475Z,101084.22
2018-09-23T01:54:36.424Z,101076.25
2018-09-23T01:57:06.200Z,101075.14
2018-09-23T01:59:36.172Z,101079.77
2018-09-23T02:02:11.284Z,101070.98
2018-09-23T02:04:40.186Z,101070.51
2018-09-23T02:07:09.125Z,101063.02
2018-09-23T02:09:45.801Z,101057.92
2018-09-23T02:12:14.902Z,101058.95
2018-09-23T02:14:58.059Z,101056.08
2018-09-23T02:17:27.133Z,101053.13
2018-09-23T02:19:56.029Z,101048.77
2018-09-23T02:22:34.712Z,101043.19
2018-09-23T02:25:03.761Z,101033.29
2018-09-23T02:27:33.853Z,101041.22
2018-09-23T02:30:02.799Z,101043.02
2018-09-23T02:32:31.705Z,101043.02
2018-09-23T02:35:00.604Z,101043.08
2018-09-23T02:37:30.619Z,101036.98
2018-09-23T02:39:59.585Z,101028.02
2018-09-23T02:42:35.137Z,101022.75
2018-09-23T02:45:04.323Z,101009.84
2018-09-23T02:47:33.272Z,101012.48
2018-09-23T02:50:02.176Z,101013.30
2018-09-23T02:52:31.048Z,101010.66
2018-09-23T02:55:01.098Z,101008.86
2018-09-23T02:57:30.000Z,101008.80
2018-09-23T03:00:03.858Z,101013.73
2018-09-23T03:02:32.779Z,100990.31
2018-09-23T03:05:01.660Z,100992.23
2018-09-23T03:07:30.583Z,100988.17
2018-09-23T03:09:59.458Z,100984.61
2018-09-23T03:12:47.419Z,100978.91
2018-09-23T03:15:16.512Z,100971.61
2018-09-23T03:17:45.392Z,100975.27
2018-09-23T03:20:14.287Z,100976.44
2018-09-23T03:22:43.259Z,100977.31
2018-09-23T03:25:13.223Z,100974.61
2018-09-23T03:27:45.220Z,100972.80
2018-09-23T03:30:14.122Z,100968.45
2018-09-23T03:32:43.033Z,100959.38
2018-09-23T03:35:15.315Z,100951.87
2018-09-23T03:37:51.015Z,100967.61
2018-09-23T03:40:21.033Z,100944.31
2018-09-23T03:42:50.174Z,100941.38
2018-09-23T03:45:19.081Z,100937.68
2018-09-23T03:47:48.035Z,100950.89
2018-09-23T03:50:19.078Z,100943.66
2018-09-23T03:52:48.000Z,100934.02
2018-09-23T03:55:16.908Z,100913.06
2018-09-23T03:57:45.808Z,100898.20
2018-09-23T04:00:14.698Z,100899.48
2018-09-23T04:02:43.705Z,100904.66
2018-09-23T04:05:14.637Z,100888.44
2018-09-23T04:07:44.898Z,100864.77
2018-09-23T04:10:13.858Z,100858.66
2018-09-23T04:13:05.647Z,100857.68
2018-09-23T04:15:35.619Z,100847.31
2018-09-23T04:18:15.998Z,100842.80
2018-09-23T04:20:49.207Z,100838.16
2018-09-23T04:23:40.424Z,100844.12
2018-09-23T04:26:15.161Z,100834.98
2018-09-23T04:28:49.320Z,100830.48
2018-09-23T04:31:24.561Z,100834.28
2018-09-23T04:33:56.819Z,100827.53
2018-09-23T04:36:25.725Z,100824.75
2018-09-23T04:38:58.569Z,100829.23
2018-09-23T04:41:32.448Z,100836.25
2018-09-23T04:44:07.807Z,100845.61
2018-09-23T04:46:50.744Z,100855.29
2018-09-23T04:49:26.648Z,100862.45
2018-09-23T04:51:55.542Z,100861.88
2018-09-23T04:54:26.572Z,100860.42
2018-09-23T04:57:12.547Z,100865.53
2018-09-23T04:59:41.465Z,100870.52
2018-09-23T05:02:12.463Z,100865.41
2018-09-23T05:04:42.401Z,100853.86
2018-09-23T05:07:16.189Z,100850.50
2018-09-23T05:09:53.551Z,100834.77
2018-09-23T05:12:28.313Z,100840.80
2018-09-23T05:14:57.649Z,100827.89
2018-09-23T05:17:28.803Z,100827.20
2018-09-23T05:20:05.077Z,100826.30
2018-09-23T05:22:34.013Z,100826.78
2018-09-23T05:25:03.043Z,100817.54
2018-09-23T05:27:32.004Z,100815.54
2018-09-23T05:30:04.056Z,100805.03
2018-09-23T05:32:48.925Z,100801.78
2018-09-23T05:35:18.839Z,100820.13
2018-09-23T05:38:12.068Z,100814.94
2018-09-23T05:40:41.175Z,100821.99
2018-09-23T05:43:28.707Z,100817.19
2018-09-23T05:46:00.773Z,100815.24
2018-09-23T05:48:40.169Z,100810.84
2018-09-23T05:51:16.933Z,100802.27
2018-09-23T05:53:45.995Z,100806.91
2018-09-23T05:56:20.618Z,100791.66
2018-09-23T05:58:56.328Z,100796.22
2018-09-23T06:01:29.728Z,100798.84
2018-09-23T06:04:08.218Z,100788.47
2018-09-23T06:06:40.674Z,100777.95
2018-09-23T06:09:10.802Z,100780.60
2018-09-23T06:11:41.945Z,100791.47
2018-09-23T06:14:11.056Z,100782.81
2018-09-23T06:16:40.031Z,100775.86
2018-09-23T06:19:10.237Z,100783.76
2018-09-23T06:21:39.138Z,100793.53
2018-09-23T06:24:15.206Z,100798.84
2018-09-23T06:26:46.141Z,100798.84
2018-09-23T06:29:15.041Z,100795.73
2018-09-23T06:31:56.134Z,100787.13
2018-09-23T06:34:25.160Z,100767.81
2018-09-23T06:36:54.369Z,100757.20
2018-09-23T06:39:24.336Z,100753.05
2018-09-23T06:41:55.984Z,100752.28
2018-09-23T06:44:27.126Z,100751.38
2018-09-23T06:46:56.217Z,100751.48
2018-09-23T06:49:36.062Z,100759.05
2018-09-23T06:52:05.211Z,100763.05
2018-09-23T06:54:36.238Z,100774.02
2018-09-23T06:57:05.192Z,100776.77
2018-09-23T06:59:38.077Z,100775.13
2018-09-23T07:02:08.969Z,100778.83
2018-09-23T07:04:44.065Z,100777.42
2018-09-23T07:07:35.105Z,100778.61
2018-09-23T07:10:10.194Z,100776.77
2018-09-23T07:12:39.225Z,100762.95
2018-09-23T07:15:08.417Z,100760.75
2018-09-23T07:17:37.436Z,100763.15
2018-09-23T07:20:09.506Z,100754.94
2018-09-23T07:22:42.504Z,100742.48
2018-09-23T07:25:13.655Z,100735.48
2018-09-23T07:27:42.707Z,100741.58
2018-09-23T07:30:15.258Z,100740.52
2018-09-23T07:32:44.254Z,100741.58
2018-09-23T07:35:13.403Z,100747.53
2018-09-23T07:37:44.364Z,100741.53
2018-09-23T07:40:18.845Z,100731.67
2018-09-23T07:42:48.303Z,100725.22
2018-09-23T07:45:17.306Z,100722.22
2018-09-23T07:47:48.259Z,100706.39
2018-09-23T07:50:24.736Z,100693.22
2018-09-23T07:52:53.748Z,100689.77
2018-09-23T07:55:23.708Z,100689.11
2018-09-23T07:57:54.690Z,100691.36
2018-09-23T08:00:41.727Z,100693.47
2018-09-23T08:03:16.945Z,100690.07
2018-09-23T08:05:45.979Z,100702.42
2018-09-23T08:08:14.982Z,100704.36
2018-09-23T08:10:43.983Z,100706.77
2018-09-23T08:13:15.113Z,100704.31
2018-09-23T08:15:45.050Z,100697.13
2018-09-23T08:18:14.060Z,100700.39
2018-09-23T08:20:44.056Z,100705.39
2018-09-23T08:23:13.253Z,100702.60
2018-09-23T08:25:53.958Z,100705.71
2018-09-23T08:28:23.036Z,100706.44
2018-09-23T08:30:55.502Z,100717.39
2018-09-23T08:33:25.686Z,100715.20
2018-09-23T08:36:04.358Z,100720.12
2018-09-23T08:38:36.829Z,100717.92
2018-09-23T08:41:08.464Z,100711.00
2018-09-23T08:43:38.599Z,100706.39
2018-09-23T08:46:09.660Z,100694.48
2018-09-23T08:48:42.814Z,100689.95
2018-09-23T08:51:12.087Z,100672.93
2018-09-23T08:53:41.021Z,100658.15
2018-09-23T08:56:10.107Z,100640.83
2018-09-23T08:58:39.248Z,100638.64
2018-09-23T09:01:08.189Z,100638.84
2018-09-23T09:03:37.274Z,100634.23
2018-09-23T09:06:06.356Z,100637.20
2018-09-23T09:08:35.606Z,100638.59
2018-09-23T09:11:04.678Z,100630.09
2018-09-23T09:13:34.397Z,100636.98
2018-09-23T09:16:07.922Z,100652.53
2018-09-23T09:18:37.145Z,100662.67
2018-09-23T09:21:06.431Z,100658.11
2018-09-23T09:23:35.971Z,100637.36
2018-09-23T09:26:05.550Z,100628.19
2018-09-23T09:28:34.962Z,100620.30
2018-09-23T09:31:05.638Z,100622.02
2018-09-23T09:33:36.392Z,100617.20
2018-09-23T09:36:10.575Z,100597.97
2018-09-23T09:38:39.825Z,100594.68
2018-09-23T09:41:16.029Z,100582.59
2018-09-23T09:43:48.074Z,100566.02
2018-09-23T09:46:18.872Z,100559.34
2018-09-23T09:48:51.755Z,100570.08
2018-09-23T09:51:26.493Z,100564.78
2018-09-23T09:53:59.474Z,100552.42
2018-09-23T09:56:32.467Z,100539.63
2018-09-23T09:59:01.469Z,100538.03
2018-09-23T10:01:30.491Z,100518.95
2018-09-23T10:03:59.677Z,100508.94
2018-09-23T10:06:29.454Z,100510.84
2018-09-23T10:08:58.469Z,100520.74
2018-09-23T10:11:27.491Z,100512.19
2018-09-23T10:13:56.452Z,100507.55
2018-09-23T10:16:25.436Z,100507.22
2018-09-23T10:18:56.478Z,100511.97
2018-09-23T10:21:25.484Z,100516.98
2018-09-23T10:23:54.796Z,100522.31
2018-09-23T10:26:29.061Z,100515.19
2018-09-23T10:28:58.071Z,100528.20
2018-09-23T10:31:27.230Z,100536.97
2018-09-23T10:33:56.163Z,100549.56
2018-09-23T10:36:25.233Z,100548.53
2018-09-23T10:38:54.857Z,100561.28
2018-09-23T10:41:28.200Z,100540.21
2018-09-23T10:44:03.198Z,100544.05
2018-09-23T10:46:41.676Z,100560.36
2018-09-23T10:49:16.184Z,100567.66
2018-09-23T10:51:46.039Z,100565.38
2018-09-23T10:54:17.416Z,100571.55
2018-09-23T10:56:46.519Z,100545.45
2018-09-23T10:59:18.260Z,100518.80
2018-09-23T11:01:49.790Z,100480.47
2018-09-23T11:04:25.262Z,100502.72
2018-09-23T11:06:54.204Z,100486.24
2018-09-23T11:09:28.157Z,100486.97
2018-09-23T11:12:09.637Z,100492.30
2018-09-23T11:14:44.076Z,100483.42
2018-09-23T11:17:18.004Z,100504.67
2018-09-23T11:19:46.983Z,100455.78
2018-09-23T11:22:16.948Z,100437.45
2018-09-23T11:24:47.103Z,100454.39
2018-09-23T11:27:16.110Z,100428.94
2018-09-23T11:29:49.740Z,100438.83
2018-09-23T11:32:18.664Z,100427.55
2018-09-23T11:34:48.924Z,100408.52
2018-09-23T11:37:19.985Z,100380.19
2018-09-23T11:39:49.001Z,100358.02
2018-09-23T11:42:20.026Z,100341.20
2018-09-23T11:44:50.006Z,100317.25
2018-09-23T11:47:19.116Z,100342.22
2018-09-23T11:49:49.147Z,100354.59
2018-09-23T11:52:19.142Z,100386.80
2018-09-23T11:54:48.123Z,100429.21
2018-09-23T11:57:20.590Z,100469.48
2018-09-23T11:59:51.734Z,100492.10
2018-09-23T12:02:25.278Z,100508.52
2018-09-23T12:04:57.357Z,100489.86
2018-09-23T12:07:26.320Z,100481.25
2018-09-23T12:09:56.501Z,100461.00
2018-09-23T12:12:25.397Z,100454.88
2018-09-23T12:15:00.400Z,100466.10
2018-09-23T12:17:30.553Z,100499.16
2018-09-23T12:20:02.956Z,100511.13
2018-09-23T12:22:31.956Z,100523.22
2018-09-23T12:25:01.253Z,100547.22
2018-09-23T12:27:30.220Z,100567.62
2018-09-23T12:30:01.413Z,100580.52
2018-09-23T12:32:34.125Z,100590.22
2018-09-23T12:35:08.209Z,100605.29
2018-09-23T12:37:38.511Z,100599.23
2018-09-23T12:40:08.686Z,100540.77
2018-09-23T12:42:39.693Z,100501.86
2018-09-23T12:45:09.785Z,100474.02
2018-09-23T12:47:38.899Z,100458.38
2018-09-23T12:50:13.513Z,100467.83
2018-09-23T12:52:42.485Z,100477.23
2018-09-23T12:55:16.057Z,100492.67
2018-09-23T12:57:47.020Z,100501.05
2018-09-23T13:00:20.036Z,100502.16
2018-09-23T13:02:49.131Z,100500.42
2018-09-23T13:05:18.118Z,100481.91
2018-09-23T13:07:47.145Z,100486.97
2018-09-23T13:10:34.220Z,100478.67
2018-09-23T13:13:04.296Z,100510.05
2018-09-23T13:15:33.163Z,100468.04
2018-09-23T13:18:02.434Z,100471.32
2018-09-23T13:20:34.988Z,100487.33
2018-09-23T13:23:03.898Z,100470.44
2018-09-23T13:25:39.159Z,100478.38
2018-09-23T13:28:09.182Z,100510.09
2018-09-23T13:30:38.274Z,100496.88
2018-09-23T13:33:09.439Z,100501.35
2018-09-23T13:35:38.469Z,100529.33
2018-09-23T13:38:07.413Z,100518.53
2018-09-23T13:40:36.380Z,100496.47
2018-09-23T13:43:08.648Z,100519.70
2018-09-23T13:45:37.688Z,100522.02
2018-09-23T13:48:06.641Z,100537.62
2018-09-23T13:50:35.538Z,100573.27
2018-09-23T13:53:04.455Z,100600.60
2018-09-23T13:55:39.097Z,100571.66
2018-09-23T13:58:07.969Z,100624.38
2018-09-23T14:00:36.928Z,100641.70
2018-09-23T14:03:06.059Z,100648.61
2018-09-23T14:08:35.312Z,100647.58
2018-09-23T14:11:04.265Z,100653.67
2018-09-23T14:13:37.625Z,100652.57
2018-09-23T14:16:20.565Z,100666.94
2018-09-23T14:18:57.941Z,100659.44
2018-09-23T14:21:26.876Z,100665.46
2018-09-23T14:23:55.932Z,100657.89
2018-09-23T14:26:37.442Z,100661.27
2018-09-23T14:29:06.990Z,100672.94
2018-09-23T14:31:35.919Z,100679.73
2018-09-23T14:34:04.893Z,100690.59
2018-09-23T14:36:33.815Z,100688.28
2018-09-23T14:39:02.764Z,100709.32
2018-09-23T14:41:49.221Z,100709.20
2018-09-23T14:44:22.387Z,100719.00
2018-09-23T14:46:59.629Z,100708.88
2018-09-23T14:49:32.070Z,100710.67
2018-09-23T14:52:12.364Z,100738.41
2018-09-23T14:54:47.120Z,100746.90
2018-09-23T14:57:15.895Z,100733.90
2018-09-23T14:59:44.962Z,100727.52
2018-09-23T15:02:36.679Z,100727.76
2018-09-23T15:05:06.981Z,100738.41
2018-09-23T15:07:35.973Z,100754.97
2018-09-23T15:10:17.207Z,100763.55
2018-09-23T15:12:46.135Z,100769.89
2018-09-23T15:15:15.133Z,100776.76
2018-09-23T15:17:44.047Z,100778.59
2018-09-23T15:20:13.187Z,100787.72
2018-09-23T15:22:42.101Z,100792.05
2018-09-23T15:25:31.197Z,100793.33
2018-09-23T15:28:00.701Z,100782.59
2018-09-23T15:30:29.612Z,100760.06
2018-09-23T15:33:08.197Z,100761.59
2018-09-23T15:35:54.461Z,100783.45
2018-09-23T15:38:32.837Z,100805.53
2018-09-23T15:41:06.079Z,100810.79
2018-09-23T15:43:36.298Z,100822.19
2018-09-23T15:46:10.404Z,100814.09
2018-09-23T15:48:46.774Z,100830.51
2018-09-23T15:51:15.707Z,100849.01
2018-09-23T15:53:44.685Z,100860.17
2018-09-23T15:56:19.401Z,100876.86
2018-09-23T15:59:04.763Z,100893.27
2018-09-23T16:01:42.091Z,100911.54
2018-09-23T16:04:11.119Z,100922.33
2018-09-23T16:06:40.182Z,100939.11
2018-09-23T16:09:09.812Z,100950.95
2018-09-23T16:11:40.019Z,100975.05
2018-09-23T16:14:10.097Z,100978.28
2018-09-23T16:16:43.539Z,100977.31
2018-09-23T16:19:14.679Z,100982.55
2018-09-23T16:21:45.685Z,100989.37
2018-09-23T16:24:14.675Z,100990.34
2018-09-23T16:26:44.717Z,100993.26
2018-09-23T16:29:15.759Z,101003.20
2018-09-23T16:31:44.708Z,101001.88
2018-09-23T16:34:13.761Z,101012.48
2018-09-23T16:36:44.761Z,101016.52
2018-09-23T16:39:15.771Z,101030.92
2018-09-23T16:41:48.062Z,101040.13
2018-09-23T16:44:17.140Z,101053.91
2018-09-23T16:46:46.168Z,101067.00
2018-09-23T16:49:15.086Z,101080.62
2018-09-23T16:51:45.053Z,101086.86
2018-09-23T16:54:15.047Z,101104.03
2018-09-23T16:56:45.998Z,101110.04
2018-09-23T16:59:17.000Z,101114.48
2018-09-23T17:01:48.125Z,101119.42
2018-09-23T17:04:22.264Z,101130.72
2018-09-23T17:06:52.270Z,101135.74
2018-09-23T17:09:24.958Z,101145.41
2018-09-23T17:11:53.982Z,101154.51
2018-09-23T17:14:23.203Z,101167.45
2018-09-23T17:16:54.307Z,101177.55
2018-09-23T17:19:33.661Z,101186.82
2018-09-23T17:22:08.431Z,101205.52
2018-09-23T17:24:44.485Z,101211.31
2018-09-23T17:27:19.082Z,101222.99
2018-09-23T17:29:49.103Z,101231.16
2018-09-23T17:32:18.142Z,101240.80
2018-09-23T17:34:50.612Z,101256.36
2018-09-23T17:37:19.640Z,101262.84
2018-09-23T17:39:48.887Z,101262.66
2018-09-23T17:42:20.008Z,101275.36
2018-09-23T17:44:49.149Z,101281.49
2018-09-23T17:47:19.211Z,101281.18
2018-09-23T17:49:48.195Z,101289.34
2018-09-23T17:52:19.298Z,101302.33
2018-09-23T17:55:01.503Z,101314.50
2018-09-23T17:57:31.513Z,101326.17
2018-09-23T18:00:01.504Z,101334.38
2018-09-23T18:02:35.694Z,101337.24
2018-09-23T18:05:15.157Z,101347.17
2018-09-23T18:07:45.223Z,101354.33
2018-09-23T18:10:16.225Z,101363.30
2018-09-23T18:12:48.927Z,101379.72
2018-09-23T18:15:17.992Z,101381.56
2018-09-23T18:17:48.801Z,101390.50
2018-09-23T18:20:19.732Z,101399.59
2018-09-23T18:22:48.778Z,101411.30
2018-09-23T18:25:17.744Z,101415.98
2018-09-23T18:27:51.835Z,101421.28
2018-09-23T18:30:21.055Z,101432.06
2018-09-23T18:32:50.091Z,101444.03
2018-09-23T18:35:20.106Z,101440.06
2018-09-23T18:37:50.368Z,101449.97
2018-09-23T18:40:20.335Z,101457.95
2018-09-23T18:42:49.586Z,101470.97
2018-09-23T18:45:18.493Z,101491.50
2018-09-23T18:47:47.601Z,101491.37
2018-09-23T18:50:16.597Z,101494.08
2018-09-23T18:52:51.114Z,101494.07
2018-09-23T18:55:25.881Z,101507.77
2018-09-23T18:57:54.976Z,101518.77
2018-09-23T19:00:26.136Z,101526.98
2018-09-23T19:03:00.331Z,101532.23
2018-09-23T19:05:35.619Z,101532.59
2018-09-23T19:08:05.672Z,101537.12
2018-09-23T19:10:37.828Z,101548.20
2018-09-23T19:13:16.183Z,101547.81
2018-09-23T19:15:55.312Z,101555.59
2018-09-23T19:18:25.279Z,101556.20
2018-09-23T19:20:54.410Z,101556.81
2018-09-23T19:23:24.408Z,101568.21
2018-09-23T19:26:06.181Z,101571.95
2018-09-23T19:28:40.306Z,101590.81
2018-09-23T19:31:11.301Z,101603.88
2018-09-23T19:33:40.302Z,101606.36
2018-09-23T19:36:12.998Z,101618.39
2018-09-23T19:38:45.457Z,101626.59
2018-09-23T19:41:14.487Z,101641.33
2018-09-23T19:43:47.283Z,101653.25
2018-09-23T19:46:16.285Z,101661.14
2018-09-23T19:48:45.382Z,101670.14
2018-09-23T19:51:14.455Z,101678.87
2018-09-23T19:53:43.502Z,101685.92
2018-09-23T19:56:12.929Z,101689.66
2018-09-23T19:58:46.882Z,101692.13
2018-09-23T20:01:19.260Z,101689.64
2018-09-23T20:03:48.322Z,101699.09
2018-09-23T20:06:18.805Z,101704.78
2018-09-23T20:08:47.751Z,101714.55
2018-09-23T20:11:22.798Z,101718.80
2018-09-23T20:13:52.026Z,101724.59
2018-09-23T20:16:23.231Z,101725.22
2018-09-23T20:18:55.417Z,101735.08
2018-09-23T20:21:26.676Z,101735.80
2018-09-23T20:23:56.679Z,101746.19
2018-09-23T20:26:33.561Z,101746.47
2018-09-23T20:29:02.499Z,101745.45
2018-09-23T20:31:32.457Z,101751.77
2018-09-23T20:34:04.595Z,101755.48
2018-09-23T20:36:34.663Z,101758.61
2018-09-23T20:39:08.801Z,101771.06
2018-09-23T20:41:37.836Z,101784.44
2018-09-23T20:44:06.856Z,101781.45
2018-09-23T20:46:45.851Z,101793.77
2018-09-23T20:49:15.002Z,101791.50
2018-09-23T20:51:44.818Z,101806.22
2018-09-23T20:54:13.750Z,101819.10
2018-09-23T20:56:49.252Z,101824.67
2018-09-23T20:59:22.653Z,101826.00
2018-09-23T21:01:55.682Z,101835.12
2018-09-23T21:04:32.320Z,101838.84
2018-09-23T21:07:01.243Z,101840.63
2018-09-23T21:09:30.214Z,101854.91
2018-09-23T21:11:59.224Z,101860.15
2018-09-23T21:14:28.128Z,101861.06
2018-09-23T21:16:57.032Z,101864.91
2018-09-23T21:19:26.370Z,101871.94
2018-09-23T21:21:55.278Z,101873.72
2018-09-23T21:24:37.066Z,101890.13
2018-09-23T21:27:07.031Z,101896.55
2018-09-23T21:29:49.600Z,101891.96
2018-09-23T21:32:18.867Z,101894.32
2018-09-23T21:34:51.503Z,101909.81
2018-09-23T21:37:26.918Z,101915.20
2018-09-23T21:40:08.989Z,101923.29
2018-09-23T21:42:38.081Z,101915.41
2018-09-23T21:45:07.601Z,101920.27
2018-09-23T21:47:46.943Z,101921.95
2018-09-23T21:50:20.030Z,101936.43
2018-09-23T21:52:49.217Z,101945.16
2018-09-23T21:55:24.059Z,101948.79
2018-09-23T22:00:52.766Z,101968.31
2018-09-23T22:03:21.860Z,101964.80
2018-09-23T22:05:55.324Z,101965.32
2018-09-23T22:08:24.232Z,101966.14
2018-09-23T22:10:54.190Z,101975.08
2018-09-23T22:13:23.233Z,101980.23
2018-09-23T22:15:52.212Z,101982.55
2018-09-23T22:18:21.121Z,101987.06
2018-09-23T22:20:50.029Z,101992.13
2018-09-23T22:23:33.632Z,101990.17
2018-09-23T22:26:08.921Z,102002.21
2018-09-23T22:28:37.830Z,102001.68
2018-09-23T22:31:06.905Z,102005.02
2018-09-23T22:33:36.815Z,102013.48
2018-09-23T22:36:10.921Z,102015.21
2018-09-23T22:38:48.039Z,102020.60
2018-09-23T22:41:16.933Z,102029.13
2018-09-23T22:43:45.829Z,102036.61
2018-09-23T22:46:14.747Z,102041.38
2018-09-23T22:48:50.641Z,102045.34
2018-09-23T22:51:19.538Z,102054.77
2018-09-23T22:53:48.445Z,102052.94
2018-09-23T22:56:17.440Z,102053.69
2018-09-23T22:58:51.368Z,102063.73
2018-09-23T23:01:20.406Z,102068.51
2018-09-23T23:03:50.333Z,102080.51
2018-09-23T23:06:20.252Z,102079.64
2018-09-23T23:08:49.164Z,102084.83
2018-09-23T23:11:18.120Z,102095.93
2018-09-23T23:13:47.051Z,102097.53
2018-09-23T23:16:17.021Z,102098.34
2018-09-23T23:18:51.890Z,102104.39
2018-09-23T23:21:40.201Z,102101.17
2018-09-23T23:24:15.423Z,102105.86
2018-09-23T23:26:44.369Z,102118.30
2018-09-23T23:29:31.653Z,102117.43
2018-09-23T23:32:03.657Z,102132.30
2018-09-23T23:34:32.567Z,102138.69
2018-09-23T23:37:01.533Z,102140.23
2018-09-23T23:39:30.386Z,102151.02
2018-09-23T23:42:07.256Z,102151.22
2018-09-23T23:44:36.608Z,102155.53
2018-09-23T23:47:05.835Z,102162.70
2018-09-23T23:49:34.680Z,102169.16
2018-09-23T23:52:03.578Z,102176.37
2018-09-23T23:54:38.347Z,102181.12
2018-09-23T23:57:07.283Z,102184.78
2018-09-23T23:59:41.547Z,102197.29
